Date,TemperatureHighF,TemperatureAvgF,TemperatureLowF,DewpointHighF,DewpointAvgF,DewpointLowF,HumidityHigh,HumidityAvg,HumidityLow,PressureMaxIn,PressureMinIn,WindSpeedMaxMPH,WindSpeedAvgMPH,GustSpeedMaxMPH,PrecipitationSumIn
2013-1-1,37,32,22,27,20,8,74,60,48,29.91,29.74,22,4,22,0.00
2013-1-2,31,23,15,14,10,7,73,59,49,30.08,29.89,17,2,17,0.00
2013-1-3,26,18,9,13,4,-5,67,52,28,30.12,29.99,13,2,13,0.00
2013-1-4,38,31,23,25,20,13,76,66,54,29.99,29.83,18,4,18,0.00
2013-1-5,42,34,25,25,22,20,83,62,46,30.24,29.87,17,2,17,0.00
2013-1-6,43,34,25,33,28,21,95,82,61,30.20,29.92,17,1,17,0.02
2013-1-7,41,35,24,31,25,18,93,68,41,30.38,29.95,15,2,15,0.00
2013-1-8,47,36,22,32,27,19,93,73,53,30.36,30.27,22,3,22,0.00
2013-1-9,45,37,25,39,32,24,97,83,60,30.37,30.01,12,2,20,0.00
2013-1-10,46,42,34,35,27,22,69,55,42,30.51,30.06,18,5,26,0.00
2013-1-11,40,35,27,40,29,23,100,80,64,30.50,30.17,9,0,9,0.19
2013-1-12,44,42,40,44,42,40,100,100,100,30.18,30.09,6,0,6,0.04
2013-1-13,54,47,42,53,47,42,100,99,93,30.14,30.00,13,1,13,0.00
2013-1-14,60,53,40,56,47,31,100,84,48,30.24,29.90,14,3,14,0.02
2013-1-15,41,38,36,34,30,26,94,74,59,30.29,30.19,8,1,8,0.13
2013-1-16,37,34,32,34,32,25,100,95,62,30.22,29.77,9,1,9,0.46
2013-1-17,42,36,32,34,29,18,100,76,52,30.06,29.84,16,2,16,0.00
2013-1-18,33,25,20,19,5,-4,57,43,30,30.46,30.00,20,4,20,0.00
2013-1-19,47,38,20,35,27,7,76,65,52,30.39,29.90,22,5,22,0.00
2013-1-20,54,44,30,36,28,9,76,56,32,29.92,29.56,40,6,40,0.00
2013-1-21,30,26,22,24,13,6,95,60,41,30.08,29.75,18,2,18,0.07
2013-1-22,24,21,14,23,7,-4,95,59,32,30.08,29.74,22,4,22,0.00
2013-1-23,16,12,9,5,-5,-10,69,45,35,30.15,30.06,21,4,21,0.00
2013-1-24,20,12,4,-5,-8,-10,55,41,30,30.23,30.07,22,4,22,0.00
2013-1-25,24,17,10,14,-3,-9,87,43,27,30.31,30.02,15,2,15,0.02
2013-1-26,25,18,12,14,5,-4,87,60,33,30.24,29.98,18,3,18,0.00
2013-1-27,31,22,12,5,2,0,65,44,31,30.44,30.24,17,2,17,0.00
2013-1-28,32,26,20,30,16,1,99,67,38,30.44,29.98,8,0,8,0.06
2013-1-29,35,32,28,34,31,28,100,97,93,30.17,29.97,6,0,6,0.04
2013-1-30,60,50,34,59,49,34,100,98,90,30.13,29.45,28,5,28,0.00
2013-1-31,62,49,32,60,37,13,99,66,34,29.61,29.01,39,10,39,0.47
2013-2-1,32,28,22,16,10,4,55,46,34,30.10,29.60,23,6,23,0.00
2013-2-2,30,25,19,17,10,5,66,53,40,30.25,30.03,20,3,20,0.00
2013-2-3,32,26,22,22,19,15,85,75,60,30.04,29.71,11,2,11,0.00
2013-2-4,30,25,21,22,11,6,85,56,36,29.94,29.71,24,4,24,0.00
2013-2-5,25,24,22,24,17,9,94,75,57,30.00,29.90,7,1,7,0.01
2013-2-6,39,31,25,28,20,4,94,67,35,30.29,29.89,15,2,17,0.00
2013-2-7,31,26,19,14,7,4,64,45,34,30.51,30.29,13,2,13,0.00
2013-2-8,32,30,24,32,27,14,100,89,64,30.45,29.66,15,4,15,0.30
2013-2-10,34,26,21,23,18,12,85,73,57,30.36,30.33,3,0,4,0.03
2013-2-11,46,36,20,46,34,12,100,92,67,30.34,29.59,16,2,16,0.13
2013-2-12,44,40,33,43,31,25,100,73,52,29.89,29.60,24,3,24,0.00
2013-2-13,42,36,31,29,25,21,83,67,53,29.86,29.65,12,1,12,0.00
2013-2-14,44,35,29,30,25,20,98,69,39,29.99,29.67,13,2,13,0.04
2013-2-15,50,39,29,37,34,26,99,82,59,30.00,29.90,15,2,15,0.00
2013-2-16,36,34,31,35,31,21,100,92,68,29.92,29.63,17,2,17,0.00
2013-2-17,31,22,16,25,12,0,95,67,35,29.70,29.38,35,8,35,0.03
2013-2-18,30,23,15,4,2,0,52,40,28,30.17,29.70,28,6,28,0.00
2013-2-19,49,37,22,45,28,4,100,72,40,30.17,29.56,14,2,14,0.36
2013-2-20,42,32,26,42,20,10,100,60,39,29.79,29.54,27,6,27,0.00
2013-2-21,33,28,25,17,14,10,65,56,45,30.19,29.79,28,6,28,0.00
2013-2-22,39,32,26,26,22,17,76,66,54,30.34,30.16,14,3,14,0.00
2013-2-23,38,34,32,35,30,26,100,86,75,30.30,29.83,14,2,14,0.28
2013-2-24,37,35,32,37,35,31,100,98,95,29.86,29.63,21,5,21,0.24
2013-2-25,40,36,31,33,31,28,99,85,67,30.22,29.85,7,1,13,0.00
2013-2-26,43,38,34,35,31,26,91,77,56,30.31,30.09,14,2,14,0.00
2013-2-27,43,41,36,43,41,32,100,98,84,30.09,29.54,24,5,24,1.37
2013-2-28,47,40,34,41,38,34,100,92,77,29.62,29.49,7,0,7,0.00
2013-3-1,47,40,35,35,31,27,93,70,48,29.66,29.49,17,3,17,0.00
2013-3-2,40,37,34,29,27,26,73,66,59,29.66,29.60,13,2,13,0.00
2013-3-3,43,36,32,30,27,24,88,70,53,29.62,29.54,14,2,14,0.00
2013-3-4,40,34,28,28,23,20,84,64,52,29.72,29.57,15,5,26,0.00
2013-3-5,45,38,31,32,27,22,88,66,54,30.03,29.71,15,3,15,0.00
2013-3-6,42,37,33,37,34,30,96,88,71,30.02,29.92,28,7,28,0.01
2013-3-7,36,33,31,34,32,29,100,95,85,29.95,29.88,27,8,29,0.05
2013-3-8,40,33,30,34,30,24,100,89,53,30.08,29.87,24,7,25,0.06
2013-3-9,46,39,32,30,28,20,92,64,46,30.32,30.08,19,4,19,0.00
2013-3-10,46,38,31,34,32,29,94,80,60,30.38,30.29,14,2,14,0.00
2013-3-11,51,42,36,43,39,34,98,87,70,30.31,30.13,15,2,15,0.00
2013-3-12,54,50,41,54,49,41,100,97,90,30.14,29.71,26,5,26,0.63
2013-3-13,51,44,35,51,31,23,100,63,34,29.77,29.69,20,3,20,0.00
2013-3-14,36,30,24,26,15,8,78,54,39,29.83,29.71,24,4,24,0.00
2013-3-15,42,32,24,29,16,6,77,53,28,29.86,29.65,22,4,22,0.00
2013-3-16,40,35,30,28,17,9,73,49,30,29.85,29.69,15,2,15,0.00
2013-3-17,38,33,27,21,12,4,65,44,25,30.29,29.85,20,3,20,0.00
2013-3-18,36,29,21,30,12,-1,98,50,32,30.44,30.13,13,3,13,0.02
2013-3-19,38,34,29,38,34,29,100,99,94,30.13,29.54,19,4,19,0.77
2013-3-20,41,34,28,30,21,17,94,61,41,29.79,29.67,23,4,23,0.00
2013-3-21,37,33,28,28,24,18,86,70,55,29.80,29.57,11,2,11,0.00
2013-3-22,40,34,27,24,19,14,68,53,40,29.75,29.59,22,5,22,0.00
2013-3-23,43,36,30,25,21,16,77,56,34,29.79,29.65,25,6,25,0.00
2013-3-24,34,33,33,22,21,20,64,60,56,29.80,29.78,16,6,17,0.00
2013-3-25,45,38,32,34,31,25,90,74,46,29.72,29.44,23,5,26,0.00
2013-3-26,47,40,36,33,27,21,90,60,39,29.77,29.47,18,3,18,0.01
2013-3-27,53,43,30,31,25,21,73,50,32,29.84,29.73,22,3,22,0.00
2013-3-28,48,43,37,36,33,30,89,68,49,30.01,29.83,14,2,14,0.00
2013-3-29,58,48,39,34,32,27,78,55,33,30.03,29.95,14,2,14,0.00
2013-3-30,57,49,40,33,26,18,68,44,23,30.09,29.98,15,2,15,0.00
2013-3-31,58,45,31,46,32,23,100,62,28,30.10,29.63,22,3,22,0.21
2013-4-1,61,48,35,47,39,15,100,74,39,29.82,29.52,24,5,30,0.08
2013-4-2,42,35,29,20,14,9,63,43,27,29.97,29.82,26,4,26,0.00
2013-4-3,45,37,31,18,14,12,56,40,27,30.19,29.95,28,7,28,0.00
2013-4-4,54,40,30,33,22,15,80,50,25,30.31,30.05,16,4,16,0.00
2013-4-5,60,47,38,37,30,18,79,55,24,30.05,29.61,19,3,21,0.00
2013-4-6,48,40,34,28,16,7,65,40,19,30.31,29.87,19,4,19,0.00
2013-4-7,52,43,29,44,32,21,89,68,35,30.31,30.01,24,5,24,0.00
2013-4-8,66,53,46,46,44,39,96,74,39,30.09,29.95,12,2,12,0.00
2013-4-9,75,60,46,56,46,39,100,67,31,30.06,29.83,25,4,26,0.01
2013-4-10,67,52,45,51,47,43,99,83,55,29.98,29.84,20,2,20,0.51
2013-4-11,55,49,45,49,42,34,100,78,61,30.11,29.80,11,2,13,0.00
2013-4-12,46,41,38,40,36,31,100,85,63,30.12,29.72,24,6,24,0.42
2013-4-13,55,46,37,39,36,34,95,73,45,29.92,29.69,18,3,18,0.00
2013-4-14,53,47,40,40,33,25,86,60,37,30.20,29.92,18,3,18,0.00
2013-4-15,54,46,38,41,34,26,94,65,44,30.40,30.20,14,2,14,0.00
2013-4-16,60,50,36,50,44,36,99,80,54,30.39,30.09,20,5,20,0.00
2013-4-17,68,57,50,54,44,33,92,64,28,30.34,30.07,16,3,16,0.00
2013-4-18,58,52,50,50,41,31,93,66,39,30.40,30.13,24,3,24,0.00
2013-4-19,70,62,52,64,60,50,100,94,77,30.13,29.68,25,6,25,0.07
2013-4-20,62,54,44,62,42,27,100,68,38,30.24,29.62,29,4,29,0.38
2013-4-21,54,43,35,33,26,20,76,51,30,30.66,30.24,18,3,18,0.00
2013-4-22,53,44,36,36,32,26,86,64,36,30.71,30.53,21,5,21,0.00
2013-4-23,44,42,40,43,40,33,99,93,76,30.53,30.01,20,5,20,0.01
2013-4-24,70,55,42,51,46,41,100,75,39,30.01,29.82,20,5,20,0.00
2013-4-25,65,56,47,52,37,25,97,56,25,30.26,29.86,19,3,19,0.04
2013-4-26,61,52,44,44,37,25,90,59,38,30.40,30.26,19,2,19,0.00
2013-4-27,59,50,38,45,39,34,98,70,40,30.40,30.31,14,2,14,0.00
2013-4-28,63,53,39,46,38,23,96,63,29,30.33,30.24,20,2,20,0.00
2013-4-29,64,54,46,49,40,24,96,63,25,30.27,30.22,17,2,17,0.00
2013-4-30,66,55,41,42,34,26,86,50,25,30.36,30.25,14,2,14,0.00
2013-5-1,68,54,38,48,42,33,87,65,39,30.47,30.35,16,2,16,0.00
2013-5-2,74,57,42,47,42,38,97,62,32,30.46,30.33,16,2,16,0.00
2013-5-3,60,52,44,46,42,38,86,70,58,30.48,30.35,20,3,20,0.00
2013-5-4,62,52,43,46,39,31,88,65,34,30.35,30.27,21,3,21,0.00
2013-5-5,62,50,39,46,42,38,96,75,45,30.31,30.22,15,2,15,0.00
2013-5-6,66,54,45,52,47,42,98,78,56,30.28,30.15,14,2,14,0.00
2013-5-7,72,60,45,61,54,45,100,84,56,30.18,30.10,14,2,14,0.00
2013-5-8,70,62,56,64,60,55,100,94,76,30.18,30.03,22,2,22,0.04
2013-5-9,67,60,57,62,59,57,100,97,71,30.03,29.87,9,0,9,0.28
2013-5-10,78,67,55,60,57,54,100,74,46,29.95,29.89,11,1,11,0.00
2013-5-11,70,62,58,62,60,55,100,93,70,29.92,29.68,11,2,15,0.12
2013-5-12,71,61,51,62,52,32,100,75,46,29.84,29.58,22,2,22,0.02
2013-5-13,59,51,42,36,31,28,73,48,32,30.03,29.84,16,2,16,0.00
2013-5-14,58,50,40,37,32,28,77,51,33,30.06,29.98,13,1,13,0.00
2013-5-15,63,53,40,54,44,33,95,74,33,30.06,29.69,14,2,15,0.00
2013-5-16,81,66,52,53,50,40,99,61,25,29.79,29.65,13,2,21,0.00
2013-5-17,70,60,51,51,44,40,82,58,34,30.23,29.80,14,1,14,0.00
2013-5-18,72,60,46,50,46,38,95,64,30,30.30,30.22,12,1,12,0.00
2013-5-19,69,58,49,56,52,47,100,81,52,30.34,30.18,12,1,12,0.05
2013-5-20,82,68,56,68,63,56,100,86,58,30.18,29.91,13,1,13,0.01
2013-5-21,86,69,53,70,63,53,99,84,57,30.00,29.82,12,1,12,0.17
2013-5-22,72,61,52,66,59,52,100,94,78,30.00,29.87,14,0,14,0.00
2013-5-23,74,67,62,69,65,62,100,95,80,29.92,29.81,15,2,15,0.10
2013-5-24,67,62,50,67,61,49,100,97,86,29.81,29.67,14,1,14,0.27
2013-5-25,52,48,43,51,46,39,100,94,83,29.79,29.71,15,2,15,0.20
2013-5-26,48,44,42,41,39,38,89,84,75,29.82,29.75,18,3,18,0.00
2013-5-27,72,61,42,46,43,36,93,55,28,30.17,30.07,7,1,21,0.00
2013-5-28,72,61,46,58,50,44,95,68,41,30.23,30.17,9,0,9,0.00
2013-5-29,74,64,58,67,62,57,100,93,76,30.18,29.99,14,0,14,0.65
2013-5-30,89,76,63,72,68,63,100,77,48,30.10,30.01,15,1,15,0.07
2013-5-31,91,81,68,74,67,63,94,66,40,30.09,29.96,9,0,9,0.00
2013-6-1,87,77,67,70,67,64,92,71,48,29.99,29.90,15,1,15,0.00
2013-6-2,84,74,67,70,66,64,92,78,56,29.92,29.79,13,1,13,0.00
2013-6-3,72,68,64,70,66,50,100,94,62,29.85,29.78,9,0,9,0.44
2013-6-4,71,63,54,52,46,39,74,53,41,30.09,29.84,15,1,15,0.00
2013-6-5,72,63,52,53,48,43,90,61,38,30.19,30.09,10,0,10,0.00
2013-6-6,70,61,52,60,54,49,100,79,50,30.20,30.07,14,1,14,0.00
2013-6-7,60,58,55,60,57,55,100,98,85,30.07,29.73,12,1,13,3.13
2013-6-8,78,65,54,66,60,54,100,86,61,30.02,29.56,17,2,17,0.99
2013-6-9,78,70,59,63,58,53,93,69,47,30.17,30.02,11,1,11,0.00
2013-6-10,71,64,58,65,60,57,100,88,67,30.19,29.95,11,1,11,1.26
2013-6-11,75,64,59,69,63,59,100,97,77,29.95,29.54,11,0,11,0.87
2013-6-12,70,65,59,62,55,53,100,71,56,29.82,29.58,16,2,21,0.00
2013-6-13,63,58,52,59,55,52,100,90,76,29.82,29.59,18,1,18,0.56
2013-6-14,70,60,53,59,54,47,100,81,55,29.78,29.57,19,2,19,1.11
2013-6-15,64,64,63,55,54,53,75,71,69,29.81,29.78,7,0,7,0.00
2013-6-16,77,70,56,65,58,52,90,68,44,29.95,29.74,10,1,10,0.00
2013-6-17,83,73,64,68,63,59,94,74,48,29.91,29.79,16,1,16,0.01
2013-6-18,80,68,59,66,61,59,99,81,51,29.93,29.84,14,1,14,0.23
2013-6-19,73,67,56,59,54,50,100,65,45,30.01,29.88,10,0,10,0.05
2013-6-20,72,72,72,51,51,51,47,47,47,30.01,30.01,0,0,1,0.05
2013-6-21,81,73,58,65,56,51,94,57,47,30.29,30.01,12,0,12,0.05
2013-6-22,82,71,63,65,58,54,92,65,44,30.25,30.15,11,1,11,0.00
2013-6-23,86,75,64,71,67,62,97,78,54,30.19,30.05,7,1,14,0.00
2013-6-24,91,80,72,76,71,66,95,77,53,30.05,29.89,16,1,16,0.00
2013-6-25,90,79,68,73,69,66,94,75,48,29.94,29.75,12,0,12,0.00
2013-6-26,86,78,72,74,71,68,94,82,57,29.85,29.74,16,1,16,0.00
2013-6-27,75,70,67,72,69,67,100,95,88,29.85,29.73,7,1,7,0.00
2013-6-28,78,72,67,73,70,67,100,96,81,29.73,29.53,10,1,10,0.45
2013-6-29,79,73,70,72,70,67,100,90,68,29.74,29.52,12,1,12,0.00
2013-6-30,79,74,70,73,71,68,100,92,75,29.95,29.74,9,0,9,0.14
2013-7-1,79,74,71,76,73,71,100,97,86,30.10,29.95,9,0,9,0.37
2013-7-2,81,75,72,75,73,72,100,93,77,30.21,30.10,7,0,7,0.01
2013-7-3,86,77,72,75,73,70,97,86,67,30.24,30.17,12,1,16,0.00
2013-7-4,88,81,75,77,75,73,97,81,64,30.23,30.13,14,1,14,0.00
2013-7-5,91,82,75,77,74,72,93,77,56,30.19,30.07,12,1,12,0.00
2013-7-6,90,83,75,77,74,72,92,76,58,30.10,29.99,13,1,13,0.00
2013-7-7,92,83,75,77,74,70,95,76,57,30.03,29.92,7,0,9,0.00
2013-7-8,88,81,73,75,72,69,93,76,57,30.05,29.93,13,1,13,0.00
2013-7-9,78,72,68,72,70,67,99,92,75,30.10,30.03,12,0,12,0.03
2013-7-10,83,76,72,76,74,72,99,92,75,30.07,29.82,7,1,12,0.00
2013-7-11,78,76,72,75,74,70,99,94,87,29.92,29.80,4,0,6,0.23
2013-7-12,76,72,67,71,66,60,94,82,68,30.19,29.91,19,2,19,0.00
2013-7-13,77,71,66,76,70,64,100,96,89,30.31,30.19,6,0,6,0.09
2013-7-14,82,74,73,76,74,73,100,98,78,30.31,30.28,11,0,11,0.00
2013-7-15,91,85,76,76,74,71,94,71,55,30.22,30.10,8,0,8,0.00
2013-7-16,92,84,77,74,71,68,86,66,47,30.17,30.10,9,0,9,0.00
2013-7-17,90,81,73,76,73,70,96,77,60,30.19,30.05,11,0,11,0.00
2013-7-18,93,84,76,78,74,70,86,72,48,30.05,29.94,8,0,8,0.00
2013-7-19,94,85,78,80,76,75,92,76,56,29.97,29.77,15,1,15,0.00
2013-7-20,91,82,75,78,76,71,95,82,56,29.83,29.68,14,1,14,0.08
2013-7-21,81,75,69,73,68,64,98,80,60,29.99,29.83,6,0,6,0.03
2013-7-22,82,76,69,72,70,68,98,84,65,30.01,29.88,8,0,8,0.00
2013-7-23,85,77,73,78,74,70,100,91,73,29.88,29.55,15,0,15,0.06
2013-7-24,84,78,72,74,69,61,98,76,62,29.93,29.59,11,0,11,0.00
2013-7-25,73,63,60,61,58,52,100,84,65,30.08,29.92,13,1,14,0.48
2013-7-26,71,64,60,68,64,60,100,97,87,30.04,29.95,11,1,11,0.27
2013-7-27,82,73,63,69,66,60,100,82,49,30.07,30.00,10,0,10,0.01
2013-7-28,83,74,68,72,69,67,99,86,67,30.02,29.96,10,0,10,0.00
2013-7-29,81,75,70,74,71,68,100,90,75,30.05,29.98,11,0,11,0.07
2013-7-30,80,73,67,68,60,56,90,65,48,30.11,30.04,14,1,14,0.00
2013-7-31,80,72,62,65,62,58,92,70,53,30.14,30.06,8,0,8,0.00
2013-8-1,78,70,64,68,64,60,98,81,57,30.07,29.89,11,1,15,0.00
2013-8-2,81,73,66,71,66,61,100,80,51,29.90,29.80,14,1,14,0.15
2013-8-3,76,71,66,67,65,63,94,83,68,29.89,29.80,11,1,11,0.00
2013-8-4,78,69,61,64,59,55,91,72,47,29.90,29.79,14,1,14,0.05
2013-8-5,75,66,57,56,52,44,90,62,33,30.05,29.90,12,1,14,0.00
2013-8-6,77,67,53,58,53,48,90,64,39,30.16,30.05,10,0,10,0.00
2013-8-7,75,67,57,64,58,50,98,74,43,30.19,30.14,14,1,14,0.00
2013-8-8,79,73,66,72,68,60,94,85,76,30.15,30.03,9,0,9,0.00
2013-8-9,75,74,71,75,73,71,100,97,92,30.06,29.79,12,1,12,1.05
2013-8-10,81,74,68,74,64,49,100,72,48,30.02,29.81,15,1,15,0.00
2013-8-11,78,69,57,62,55,49,89,63,46,30.10,30.02,11,0,11,0.00
2013-8-12,81,72,64,66,63,56,95,75,46,30.05,29.93,8,0,8,0.00
2013-8-13,72,68,65,70,66,63,99,93,76,29.94,29.70,6,0,6,0.01
2013-8-14,73,67,62,65,57,51,98,71,52,29.99,29.68,19,2,23,0.00
2013-8-15,75,66,57,58,54,45,88,66,41,30.13,29.98,12,0,13,0.00
2013-8-16,77,68,57,60,57,52,95,69,44,30.21,30.12,10,0,10,0.00
2013-8-17,79,70,60,62,58,56,90,68,47,30.28,30.21,8,0,8,0.00
2013-8-18,77,68,60,64,60,54,96,78,48,30.28,30.10,5,0,5,0.00
2013-8-19,79,70,60,65,62,58,94,76,54,30.11,29.98,13,1,13,0.00
2013-8-20,84,75,64,67,63,55,95,69,40,30.11,29.99,9,0,9,0.00
2013-8-21,86,76,66,67,64,62,90,69,47,30.15,30.05,9,0,9,0.00
2013-8-22,83,72,68,74,70,64,99,92,73,30.06,29.84,20,0,20,0.03
2013-8-23,78,72,64,71,64,55,99,76,49,30.12,29.83,13,1,13,0.00
2013-8-24,75,67,59,60,51,43,87,59,33,30.35,30.11,12,1,16,0.00
2013-8-25,80,68,56,61,56,48,97,68,36,30.37,30.22,12,0,12,0.00
2013-8-26,78,71,66,69,64,58,95,79,64,30.22,29.88,12,0,12,0.20
2013-8-27,79,72,68,72,69,66,100,91,68,29.91,29.82,9,0,9,0.68
2013-8-28,82,72,64,70,67,64,100,85,61,29.96,29.85,9,0,9,0.00
2013-8-29,69,65,62,68,63,59,99,93,88,30.06,29.93,13,1,13,0.00
2013-8-30,79,68,60,70,64,58,96,87,72,30.03,29.85,10,0,10,0.00
2013-8-31,79,74,70,73,71,69,99,91,81,29.86,29.82,6,0,6,0.00
2013-9-1,80,74,70,76,72,70,100,95,82,29.89,29.82,12,0,12,0.87
2013-9-2,75,72,69,75,72,69,100,100,99,29.88,29.73,9,0,9,0.71
2013-9-3,76,71,63,74,70,60,100,98,89,29.84,29.70,9,0,9,0.15
2013-9-4,78,68,59,62,60,58,98,77,52,29.94,29.83,13,1,13,0.00
2013-9-5,70,65,57,64,58,51,94,80,58,30.15,29.88,17,0,17,0.00
2013-9-6,67,58,50,55,46,41,93,66,42,30.24,30.11,11,0,11,0.00
2013-9-7,75,63,49,59,52,47,93,72,47,30.12,29.88,12,0,12,0.00
2013-9-8,76,67,56,64,55,42,94,68,36,30.11,29.76,16,1,16,0.00
2013-9-9,67,58,47,53,48,43,89,69,47,30.25,30.10,7,0,7,0.00
2013-9-10,74,66,56,70,63,52,97,89,81,30.18,30.06,9,0,9,0.01
2013-9-11,91,80,69,79,74,69,100,83,60,30.09,29.98,7,0,8,0.00
2013-9-12,82,75,70,74,71,69,99,89,69,30.00,29.68,10,1,10,0.57
2013-9-13,76,70,62,71,66,57,100,89,65,29.77,29.58,11,0,11,0.10
2013-9-14,68,61,55,58,54,52,90,79,62,30.08,29.76,11,0,11,0.00
2013-9-15,68,59,50,54,52,48,97,78,53,30.18,30.07,9,0,9,0.00
2013-9-16,66,59,50,58,54,38,96,84,61,30.25,30.02,11,0,11,0.03
2013-9-17,61,52,44,46,40,36,93,65,40,30.42,30.23,13,1,13,0.00
2013-9-18,71,57,44,52,47,42,97,72,42,30.34,30.16,9,0,9,0.00
2013-9-19,76,62,50,59,53,48,94,74,44,30.17,30.04,8,0,8,0.00
2013-9-20,76,64,53,62,57,52,99,80,47,30.09,30.00,10,0,10,0.00
2013-9-21,74,65,56,68,62,56,100,91,69,30.04,29.71,13,1,13,0.00
2013-9-22,70,65,53,69,58,46,99,82,57,29.84,29.64,17,2,17,0.25
2013-9-23,63,55,48,47,44,41,84,69,54,30.01,29.84,15,1,15,0.00
2013-9-24,67,54,45,50,44,40,86,70,47,30.01,29.82,13,1,13,0.00
2013-9-25,67,58,46,54,49,45,93,74,58,29.98,29.87,13,0,13,0.00
2013-9-26,64,58,53,52,50,46,91,74,58,30.12,29.98,10,0,10,0.00
2013-9-27,64,58,50,54,52,48,93,79,65,30.26,30.11,12,0,12,0.00
2013-9-28,72,59,48,56,52,47,99,80,54,30.32,30.25,11,0,11,0.00
2013-9-29,67,56,46,56,50,45,100,82,49,30.26,30.09,9,0,9,0.00
2013-9-30,67,58,52,55,51,44,100,80,46,30.11,29.95,6,0,6,0.00
2013-10-1,76,63,49,60,54,47,97,75,46,29.95,29.85,12,0,12,0.00
2013-10-2,78,67,57,62,59,55,94,77,55,29.99,29.85,17,1,17,0.00
2013-10-3,77,64,55,59,53,47,92,70,36,30.08,29.98,7,0,7,0.00
2013-10-4,68,59,53,60,56,52,97,91,69,30.07,30.03,6,0,6,0.06
2013-10-5,69,62,58,62,60,57,100,91,76,30.12,30.05,5,0,5,0.16
2013-10-6,60,59,57,59,58,56,100,94,88,30.19,30.10,11,0,11,0.20
2013-10-7,75,67,58,71,65,54,100,93,77,30.11,29.85,17,2,17,0.07
2013-10-8,65,59,52,56,47,42,81,65,42,30.36,29.91,10,1,10,0.00
2013-10-9,62,55,49,48,45,41,89,71,53,30.44,30.34,13,1,13,0.00
2013-10-10,64,56,50,56,52,47,95,86,72,30.35,30.13,14,1,14,0.00
2013-10-11,57,57,57,56,56,55,96,95,94,30.14,30.10,7,1,8,0.00
2013-10-12,67,58,54,57,53,47,92,84,70,30.36,30.12,15,2,19,0.00
2013-10-13,60,54,46,51,48,43,91,81,66,30.42,30.34,15,1,15,0.00
2013-10-14,62,50,38,50,44,37,100,83,51,30.41,30.26,4,0,6,0.00
2013-10-15,68,55,44,53,48,44,100,80,50,30.27,30.16,9,0,9,0.00
2013-10-16,54,52,50,51,50,48,94,93,92,30.17,30.15,0,0,0,0.00
2013-10-17,69,62,54,62,59,53,100,92,78,29.92,29.73,6,0,10,0.00
2013-10-18,67,62,49,63,53,45,100,75,47,29.93,29.63,19,2,19,0.01
2013-10-19,49,46,44,45,42,40,90,85,81,29.98,29.93,3,0,3,0.00
2013-10-20,62,54,44,54,42,33,98,67,35,30.03,29.70,5,2,17,0.00
2013-10-21,66,52,41,46,41,37,87,67,40,30.12,30.01,3,0,11,0.00
2013-10-22,68,56,45,56,48,41,99,78,43,30.01,29.70,3,0,10,0.00
2013-10-23,50,46,40,42,38,35,91,76,55,29.80,29.59,3,0,8,0.00
2013-10-24,52,46,39,36,31,26,83,59,37,29.91,29.65,16,2,16,0.00
2013-10-25,50,44,35,34,30,28,83,60,43,30.10,29.91,15,1,15,0.00
2013-10-26,54,44,33,40,34,29,89,68,41,30.17,29.88,5,1,18,0.00
2013-10-27,55,48,38,41,35,31,92,63,43,30.08,29.82,15,1,17,0.00
2013-10-28,59,49,34,36,34,30,90,59,39,30.35,30.08,16,1,16,0.00
2013-10-29,51,42,34,32,27,24,87,58,38,30.43,30.35,6,0,7,0.00
2013-10-30,45,38,34,42,35,31,92,90,86,30.36,30.28,1,0,1,0.00
2013-10-31,64,58,40,63,56,39,100,94,87,30.23,29.78,12,2,12,0.01
2013-11-1,69,65,61,65,61,56,100,87,73,29.78,29.51,18,4,18,0.01
2013-11-2,65,58,53,55,49,44,89,74,49,29.71,29.59,4,0,7,0.00
2013-11-3,55,44,34,48,34,18,86,68,44,30.40,29.71,12,1,12,0.00
2013-11-4,42,36,29,25,20,16,83,55,34,30.70,30.40,12,1,12,0.00
2013-11-5,49,38,26,35,29,23,91,73,47,30.70,30.52,9,0,9,0.00
2013-11-6,59,49,38,53,43,35,98,82,56,30.52,30.05,11,1,11,0.00
2013-11-7,65,55,42,61,52,32,100,91,67,30.05,29.66,12,1,12,0.08
2013-11-8,47,39,33,35,30,23,91,70,43,30.11,29.83,22,2,22,0.00
2013-11-9,45,35,31,31,26,23,79,69,43,30.22,30.08,12,1,12,0.00
2013-11-10,58,45,42,43,38,32,92,78,47,30.03,29.72,16,1,16,0.00
2013-11-11,52,46,40,40,31,27,70,56,40,30.11,29.89,24,3,24,0.00
2013-11-12,51,38,28,40,27,17,94,67,54,30.18,29.87,17,2,17,0.04
2013-11-13,37,29,25,18,15,12,68,55,36,30.27,30.18,6,1,12,0.00
2013-11-14,51,40,28,28,21,16,61,48,32,30.19,30.05,16,2,16,0.00
2013-11-15,59,49,40,41,31,17,92,53,26,30.20,30.12,8,1,11,0.00
2013-11-16,60,47,39,43,38,27,95,74,44,30.31,30.20,4,0,15,0.00
2013-11-17,57,45,37,54,43,36,99,93,80,30.29,30.12,6,0,6,0.01
2013-11-18,66,58,50,63,47,33,100,68,49,29.82,29.55,12,3,24,0.29
2013-11-19,50,42,32,33,24,19,59,50,40,30.26,29.66,19,3,19,0.00
2013-11-20,41,34,27,20,15,11,67,48,28,30.61,30.26,12,1,12,0.00
2013-11-21,48,36,24,34,23,16,81,61,33,30.62,30.37,9,0,9,0.00
2013-11-22,51,47,42,51,44,34,100,91,76,30.37,29.81,12,0,12,0.13
2013-11-23,50,42,31,48,27,13,97,58,33,29.89,29.80,28,4,28,0.00
2013-11-24,31,24,21,14,4,-3,55,41,27,30.21,29.81,28,7,28,0.00
2013-11-25,33,26,18,22,5,-5,66,42,23,30.38,30.21,17,2,17,0.00
2013-11-26,44,38,32,41,27,19,100,65,45,30.31,29.98,12,1,12,0.20
2013-11-27,62,52,38,62,51,32,100,98,81,29.98,29.21,33,6,33,2.02
2013-11-28,38,31,26,33,17,8,83,55,36,30.44,29.50,31,5,31,0.00
2013-11-29,36,29,24,17,13,5,61,51,40,30.72,30.43,11,1,11,0.00
2013-11-30,34,26,18,25,16,6,81,64,47,30.76,30.41,9,1,9,0.00
2013-12-1,44,36,30,44,34,25,100,91,80,30.41,30.02,6,0,6,0.42
2013-12-2,42,39,37,42,38,36,100,98,90,29.97,29.89,4,0,4,0.01
2013-12-3,50,42,35,39,36,32,100,80,56,29.93,29.81,11,2,11,0.00
2013-12-4,49,38,32,35,32,29,94,77,51,30.18,29.94,8,0,8,0.00
2013-12-5,55,45,34,55,44,32,100,96,90,30.17,29.92,10,0,10,0.00
2013-12-6,57,50,37,57,49,36,100,96,88,30.09,29.85,12,1,12,0.42
2013-12-7,40,35,30,36,29,22,99,80,55,30.45,30.04,18,2,18,0.16
2013-12-8,32,29,24,23,19,15,89,66,52,30.58,30.44,9,1,9,0.00
2013-12-9,39,33,27,39,33,20,100,97,67,30.47,29.88,18,2,18,0.21
2013-12-10,35,32,26,35,31,21,100,97,78,30.02,29.78,12,1,12,0.06
2013-12-11,30,26,22,22,20,18,90,76,67,30.24,30.02,12,2,16,0.00
2013-12-12,26,22,16,18,9,2,73,58,37,30.27,30.07,16,2,16,0.00
2013-12-13,32,24,17,17,11,6,73,58,44,30.33,30.01,20,3,20,0.00
2013-12-14,29,19,14,28,9,-4,99,68,42,30.56,30.05,18,3,18,0.15
2013-12-15,37,31,26,37,30,21,100,94,73,30.07,29.35,16,3,16,0.56
2013-12-16,29,25,16,22,13,7,90,61,41,30.19,29.74,14,3,20,0.00
2013-12-17,23,16,9,21,13,6,94,85,71,30.24,29.88,14,2,14,0.03
2013-12-18,34,27,20,22,20,17,90,76,55,30.09,29.82,15,3,19,0.00
2013-12-19,45,35,25,29,25,19,81,67,51,30.11,29.94,17,2,17,0.00
2013-12-20,53,42,30,40,34,28,91,74,53,30.09,29.92,11,1,11,0.00
2013-12-21,60,51,44,54,48,39,99,88,69,29.97,29.87,13,2,13,0.00
2013-12-22,63,58,44,61,56,42,95,91,82,29.97,29.78,19,4,19,0.00
2013-12-23,44,39,36,42,39,36,100,98,91,30.05,29.91,12,1,12,0.48
2013-12-24,40,34,28,40,25,17,100,69,49,30.19,30.02,13,3,13,0.00
2013-12-25,28,21,18,18,6,2,74,53,41,30.52,30.19,22,3,22,0.00
2013-12-26,36,28,20,33,24,13,94,81,73,30.47,30.06,17,1,17,0.02
2013-12-27,36,30,26,24,21,18,85,70,47,30.27,30.19,13,2,13,0.00
2013-12-28,49,37,24,31,26,21,90,66,42,30.22,29.99,22,2,22,0.00
2013-12-29,46,39,32,42,36,26,100,89,66,30.02,29.32,16,2,16,1.02
2013-12-30,40,34,21,39,25,10,100,75,39,30.13,29.49,18,3,18,0.00
2013-12-31,27,22,17,17,11,6,77,63,42,30.18,30.01,13,1,13,0.00
2014-1-1,29,24,19,15,10,6,70,53,40,30.37,30.18,15,2,15,0.00
2014-1-2,24,18,5,20,16,1,94,91,67,30.32,29.71,22,4,22,0.04